sensor_id;sensor_type;location;lat;lon;timestamp;P1;durP1;ratioP1;P2;durP2;ratioP2
44862;SDS011;30597;49.628;10.850;2023-05-10T00:02:24;1.53;;;1.43;;
44862;SDS011;30597;49.628;10.850;2023-05-10T00:04:49;2.27;;;1.80;;
44862;SDS011;30597;49.628;10.850;2023-05-10T00:07:15;2.37;;;2.17;;
44862;SDS011;30597;49.628;10.850;2023-05-10T00:09:42;1.90;;;1.80;;
44862;SDS011;30597;49.628;10.850;2023-05-10T00:12:08;1.93;;;1.83;;
44862;SDS011;30597;49.628;10.850;2023-05-10T00:14:33;1.80;;;1.70;;
44862;SDS011;30597;49.628;10.850;2023-05-10T00:16:59;1.80;;;1.70;;
44862;SDS011;30597;49.628;10.850;2023-05-10T00:19:25;2.23;;;1.57;;
44862;SDS011;30597;49.628;10.850;2023-05-10T00:21:50;1.70;;;1.60;;
44862;SDS011;30597;49.628;10.850;2023-05-10T00:24:17;2.40;;;1.90;;
44862;SDS011;30597;49.628;10.850;2023-05-10T00:26:43;2.20;;;1.60;;
44862;SDS011;30597;49.628;10.850;2023-05-10T00:29:08;1.60;;;1.50;;
44862;SDS011;30597;49.628;10.850;2023-05-10T00:31:34;1.67;;;1.57;;
44862;SDS011;30597;49.628;10.850;2023-05-10T00:33:59;1.40;;;1.30;;
44862;SDS011;30597;49.628;10.850;2023-05-10T00:36:25;1.80;;;1.70;;
44862;SDS011;30597;49.628;10.850;2023-05-10T00:38:51;2.20;;;2.00;;
44862;SDS011;30597;49.628;10.850;2023-05-10T00:41:16;1.80;;;1.70;;
44862;SDS011;30597;49.628;10.850;2023-05-10T00:43:42;1.90;;;1.70;;
44862;SDS011;30597;49.628;10.850;2023-05-10T00:46:07;1.80;;;1.70;;
44862;SDS011;30597;49.628;10.850;2023-05-10T00:48:33;1.90;;;1.77;;
44862;SDS011;30597;49.628;10.850;2023-05-10T00:50:59;1.30;;;1.20;;
44862;SDS011;30597;49.628;10.850;2023-05-10T00:53:26;1.57;;;1.47;;
44862;SDS011;30597;49.628;10.850;2023-05-10T00:55:52;1.93;;;1.43;;
44862;SDS011;30597;49.628;10.850;2023-05-10T00:58:18;2.00;;;1.60;;
44862;SDS011;30597;49.628;10.850;2023-05-10T01:00:43;1.70;;;1.60;;
44862;SDS011;30597;49.628;10.850;2023-05-10T01:03:11;1.97;;;1.27;;
44862;SDS011;30597;49.628;10.850;2023-05-10T01:05:37;1.70;;;1.60;;
44862;SDS011;30597;49.628;10.850;2023-05-10T01:08:03;2.27;;;1.90;;
44862;SDS011;30597;49.628;10.850;2023-05-10T01:10:29;1.97;;;1.77;;
44862;SDS011;30597;49.628;10.850;2023-05-10T01:12:56;1.67;;;1.57;;
44862;SDS011;30597;49.628;10.850;2023-05-10T01:15:24;1.73;;;1.63;;
44862;SDS011;30597;49.628;10.850;2023-05-10T01:17:50;1.20;;;1.10;;
44862;SDS011;30597;49.628;10.850;2023-05-10T01:20:16;1.80;;;1.70;;
44862;SDS011;30597;49.628;10.850;2023-05-10T01:22:59;1.70;;;1.57;;
44862;SDS011;30597;49.628;10.850;2023-05-10T01:34:34;2.97;;;1.53;;
44862;SDS011;30597;49.628;10.850;2023-05-10T01:37:13;2.60;;;2.10;;
44862;SDS011;30597;49.628;10.850;2023-05-10T01:39:47;2.53;;;1.70;;
44862;SDS011;30597;49.628;10.850;2023-05-10T01:42:24;1.60;;;1.50;;
44862;SDS011;30597;49.628;10.850;2023-05-10T01:45:02;1.57;;;1.30;;
44862;SDS011;30597;49.628;10.850;2023-05-10T01:50:31;3.07;;;1.97;;
44862;SDS011;30597;49.628;10.850;2023-05-10T01:52:59;3.20;;;1.40;;
44862;SDS011;30597;49.628;10.850;2023-05-10T01:55:28;1.90;;;1.80;;
44862;SDS011;30597;49.628;10.850;2023-05-10T01:58:02;2.33;;;1.70;;
44862;SDS011;30597;49.628;10.850;2023-05-10T02:00:30;3.60;;;1.70;;
44862;SDS011;30597;49.628;10.850;2023-05-10T02:02:58;1.67;;;1.57;;
44862;SDS011;30597;49.628;10.850;2023-05-10T02:05:27;1.60;;;1.50;;
44862;SDS011;30597;49.628;10.850;2023-05-10T02:07:55;1.97;;;1.40;;
44862;SDS011;30597;49.628;10.850;2023-05-10T02:10:23;2.20;;;1.30;;
44862;SDS011;30597;49.628;10.850;2023-05-10T02:12:48;3.73;;;1.50;;
44862;SDS011;30597;49.628;10.850;2023-05-10T02:15:17;1.70;;;1.60;;
44862;SDS011;30597;49.628;10.850;2023-05-10T02:17:46;1.83;;;1.73;;
44862;SDS011;30597;49.628;10.850;2023-05-10T02:20:12;1.80;;;1.30;;
44862;SDS011;30597;49.628;10.850;2023-05-10T02:22:40;1.70;;;1.60;;
44862;SDS011;30597;49.628;10.850;2023-05-10T02:25:07;1.87;;;1.53;;
44862;SDS011;30597;49.628;10.850;2023-05-10T02:27:34;2.67;;;1.60;;
44862;SDS011;30597;49.628;10.850;2023-05-10T02:30:02;1.73;;;1.63;;
44862;SDS011;30597;49.628;10.850;2023-05-10T02:32:29;1.63;;;1.53;;
44862;SDS011;30597;49.628;10.850;2023-05-10T02:34:55;1.30;;;1.20;;
44862;SDS011;30597;49.628;10.850;2023-05-10T02:37:22;3.50;;;1.93;;
44862;SDS011;30597;49.628;10.850;2023-05-10T02:39:49;1.37;;;1.27;;
44862;SDS011;30597;49.628;10.850;2023-05-10T02:42:18;1.63;;;1.23;;
44862;SDS011;30597;49.628;10.850;2023-05-10T02:44:45;1.60;;;1.50;;
44862;SDS011;30597;49.628;10.850;2023-05-10T02:47:14;1.57;;;1.47;;
44862;SDS011;30597;49.628;10.850;2023-05-10T02:49:39;2.50;;;1.70;;
44862;SDS011;30597;49.628;10.850;2023-05-10T02:52:05;1.33;;;1.23;;
44862;SDS011;30597;49.628;10.850;2023-05-10T02:54:35;2.40;;;1.80;;
44862;SDS011;30597;49.628;10.850;2023-05-10T02:57:06;2.17;;;1.37;;
44862;SDS011;30597;49.628;10.850;2023-05-10T02:59:33;1.67;;;1.57;;
44862;SDS011;30597;49.628;10.850;2023-05-10T03:01:59;1.20;;;1.10;;
44862;SDS011;30597;49.628;10.850;2023-05-10T03:04:26;3.43;;;1.80;;
44862;SDS011;30597;49.628;10.850;2023-05-10T03:06:52;1.83;;;1.70;;
44862;SDS011;30597;49.628;10.850;2023-05-10T03:09:18;1.63;;;1.53;;
44862;SDS011;30597;49.628;10.850;2023-05-10T03:11:51;1.60;;;1.50;;
44862;SDS011;30597;49.628;10.850;2023-05-10T03:14:53;2.73;;;1.20;;
44862;SDS011;30597;49.628;10.850;2023-05-10T03:17:29;1.60;;;1.33;;
44862;SDS011;30597;49.628;10.850;2023-05-10T03:20:04;1.30;;;1.20;;
44862;SDS011;30597;49.628;10.850;2023-05-10T03:22:47;1.70;;;1.60;;
44862;SDS011;30597;49.628;10.850;2023-05-10T03:25:15;1.43;;;1.10;;
44862;SDS011;30597;49.628;10.850;2023-05-10T03:27:43;5.77;;;1.27;;
44862;SDS011;30597;49.628;10.850;2023-05-10T03:30:10;1.90;;;1.50;;
44862;SDS011;30597;49.628;10.850;2023-05-10T03:32:37;1.30;;;1.20;;
44862;SDS011;30597;49.628;10.850;2023-05-10T03:35:10;1.47;;;1.37;;
44862;SDS011;30597;49.628;10.850;2023-05-10T03:37:37;1.57;;;1.47;;
44862;SDS011;30597;49.628;10.850;2023-05-10T03:40:03;1.50;;;1.40;;
44862;SDS011;30597;49.628;10.850;2023-05-10T03:42:29;1.30;;;1.20;;
44862;SDS011;30597;49.628;10.850;2023-05-10T03:44:54;1.60;;;1.50;;
44862;SDS011;30597;49.628;10.850;2023-05-10T03:47:20;1.50;;;1.40;;
44862;SDS011;30597;49.628;10.850;2023-05-10T03:49:45;1.43;;;1.33;;
44862;SDS011;30597;49.628;10.850;2023-05-10T03:52:11;1.50;;;1.40;;
44862;SDS011;30597;49.628;10.850;2023-05-10T03:54:36;1.10;;;1.00;;
44862;SDS011;30597;49.628;10.850;2023-05-10T03:57:02;1.67;;;1.43;;
44862;SDS011;30597;49.628;10.850;2023-05-10T03:59:28;1.50;;;1.40;;
44862;SDS011;30597;49.628;10.850;2023-05-10T04:01:54;2.83;;;1.60;;
44862;SDS011;30597;49.628;10.850;2023-05-10T04:04:20;1.40;;;1.13;;
44862;SDS011;30597;49.628;10.850;2023-05-10T04:06:46;1.43;;;1.33;;
44862;SDS011;30597;49.628;10.850;2023-05-10T04:09:12;1.27;;;1.17;;
44862;SDS011;30597;49.628;10.850;2023-05-10T04:11:38;1.53;;;1.20;;
44862;SDS011;30597;49.628;10.850;2023-05-10T04:14:04;1.50;;;1.40;;
44862;SDS011;30597;49.628;10.850;2023-05-10T04:16:29;1.43;;;1.33;;
44862;SDS011;30597;49.628;10.850;2023-05-10T04:18:55;1.90;;;1.43;;
44862;SDS011;30597;49.628;10.850;2023-05-10T04:21:20;1.30;;;1.20;;
44862;SDS011;30597;49.628;10.850;2023-05-10T04:23:46;1.40;;;1.30;;
44862;SDS011;30597;49.628;10.850;2023-05-10T04:26:12;1.27;;;1.17;;
44862;SDS011;30597;49.628;10.850;2023-05-10T04:28:37;1.47;;;1.37;;
44862;SDS011;30597;49.628;10.850;2023-05-10T04:31:04;1.50;;;1.40;;
44862;SDS011;30597;49.628;10.850;2023-05-10T04:33:33;1.77;;;1.60;;
44862;SDS011;30597;49.628;10.850;2023-05-10T04:36:00;1.23;;;1.07;;
44862;SDS011;30597;49.628;10.850;2023-05-10T04:38:26;1.50;;;1.40;;
44862;SDS011;30597;49.628;10.850;2023-05-10T04:40:53;1.20;;;1.10;;
44862;SDS011;30597;49.628;10.850;2023-05-10T04:43:19;1.43;;;1.33;;
44862;SDS011;30597;49.628;10.850;2023-05-10T04:45:45;1.70;;;1.60;;
44862;SDS011;30597;49.628;10.850;2023-05-10T04:48:11;1.20;;;1.10;;
44862;SDS011;30597;49.628;10.850;2023-05-10T04:50:36;1.40;;;1.30;;
44862;SDS011;30597;49.628;10.850;2023-05-10T04:53:03;1.17;;;0.93;;
44862;SDS011;30597;49.628;10.850;2023-05-10T04:55:29;1.37;;;1.27;;
44862;SDS011;30597;49.628;10.850;2023-05-10T04:57:54;1.27;;;1.17;;
44862;SDS011;30597;49.628;10.850;2023-05-10T05:00:22;1.27;;;1.10;;
44862;SDS011;30597;49.628;10.850;2023-05-10T05:02:48;1.20;;;1.10;;
44862;SDS011;30597;49.628;10.850;2023-05-10T05:05:13;1.13;;;1.07;;
44862;SDS011;30597;49.628;10.850;2023-05-10T05:07:39;1.07;;;0.90;;
44862;SDS011;30597;49.628;10.850;2023-05-10T05:10:08;1.40;;;1.30;;
44862;SDS011;30597;49.628;10.850;2023-05-10T05:12:34;1.03;;;0.93;;
44862;SDS011;30597;49.628;10.850;2023-05-10T05:15:00;1.37;;;1.27;;
44862;SDS011;30597;49.628;10.850;2023-05-10T05:17:27;1.43;;;1.27;;
44862;SDS011;30597;49.628;10.850;2023-05-10T05:19:54;1.60;;;1.37;;
44862;SDS011;30597;49.628;10.850;2023-05-10T05:22:20;1.57;;;1.17;;
44862;SDS011;30597;49.628;10.850;2023-05-10T05:24:52;1.40;;;1.30;;
44862;SDS011;30597;49.628;10.850;2023-05-10T05:27:18;1.33;;;1.23;;
44862;SDS011;30597;49.628;10.850;2023-05-10T05:29:45;1.30;;;1.20;;
44862;SDS011;30597;49.628;10.850;2023-05-10T05:32:11;1.20;;;1.10;;
44862;SDS011;30597;49.628;10.850;2023-05-10T05:34:37;1.17;;;1.07;;
44862;SDS011;30597;49.628;10.850;2023-05-10T05:37:02;1.27;;;1.10;;
44862;SDS011;30597;49.628;10.850;2023-05-10T05:39:28;1.10;;;1.00;;
44862;SDS011;30597;49.628;10.850;2023-05-10T05:41:54;2.40;;;1.13;;
44862;SDS011;30597;49.628;10.850;2023-05-10T05:44:19;1.60;;;1.47;;
44862;SDS011;30597;49.628;10.850;2023-05-10T05:46:45;1.23;;;1.13;;
44862;SDS011;30597;49.628;10.850;2023-05-10T05:49:10;1.40;;;1.30;;
44862;SDS011;30597;49.628;10.850;2023-05-10T05:51:37;1.87;;;1.17;;
44862;SDS011;30597;49.628;10.850;2023-05-10T05:54:02;2.97;;;0.90;;
44862;SDS011;30597;49.628;10.850;2023-05-10T05:56:29;0.93;;;0.83;;
44862;SDS011;30597;49.628;10.850;2023-05-10T05:58:55;1.23;;;1.13;;
44862;SDS011;30597;49.628;10.850;2023-05-10T06:01:20;1.37;;;1.10;;
44862;SDS011;30597;49.628;10.850;2023-05-10T06:03:46;0.83;;;0.83;;
44862;SDS011;30597;49.628;10.850;2023-05-10T06:06:11;1.00;;;0.83;;
44862;SDS011;30597;49.628;10.850;2023-05-10T06:08:37;1.07;;;0.90;;
44862;SDS011;30597;49.628;10.850;2023-05-10T06:11:03;1.17;;;0.87;;
44862;SDS011;30597;49.628;10.850;2023-05-10T06:13:29;1.40;;;1.07;;
44862;SDS011;30597;49.628;10.850;2023-05-10T06:15:58;1.03;;;0.80;;
44862;SDS011;30597;49.628;10.850;2023-05-10T06:18:24;1.93;;;1.10;;
44862;SDS011;30597;49.628;10.850;2023-05-10T06:20:50;1.13;;;1.00;;
44862;SDS011;30597;49.628;10.850;2023-05-10T06:23:16;0.83;;;0.80;;
44862;SDS011;30597;49.628;10.850;2023-05-10T06:25:42;0.87;;;0.87;;
44862;SDS011;30597;49.628;10.850;2023-05-10T06:28:07;2.90;;;0.80;;
44862;SDS011;30597;49.628;10.850;2023-05-10T06:30:33;1.47;;;1.03;;
44862;SDS011;30597;49.628;10.850;2023-05-10T06:33:00;0.87;;;0.80;;
44862;SDS011;30597;49.628;10.850;2023-05-10T06:35:26;0.80;;;0.80;;
44862;SDS011;30597;49.628;10.850;2023-05-10T06:37:51;1.10;;;1.00;;
44862;SDS011;30597;49.628;10.850;2023-05-10T06:40:17;1.60;;;0.90;;
44862;SDS011;30597;49.628;10.850;2023-05-10T06:42:43;1.90;;;0.80;;
44862;SDS011;30597;49.628;10.850;2023-05-10T06:45:10;1.20;;;1.10;;
44862;SDS011;30597;49.628;10.850;2023-05-10T06:47:36;1.60;;;1.00;;
44862;SDS011;30597;49.628;10.850;2023-05-10T06:50:01;2.90;;;0.97;;
44862;SDS011;30597;49.628;10.850;2023-05-10T06:52:28;0.97;;;0.80;;
44862;SDS011;30597;49.628;10.850;2023-05-10T06:54:53;1.27;;;1.10;;
44862;SDS011;30597;49.628;10.850;2023-05-10T06:57:19;1.30;;;0.90;;
44862;SDS011;30597;49.628;10.850;2023-05-10T06:59:45;1.00;;;0.90;;
44862;SDS011;30597;49.628;10.850;2023-05-10T07:02:11;1.47;;;1.00;;
44862;SDS011;30597;49.628;10.850;2023-05-10T07:04:36;1.27;;;1.00;;
44862;SDS011;30597;49.628;10.850;2023-05-10T07:07:02;1.10;;;1.00;;
44862;SDS011;30597;49.628;10.850;2023-05-10T07:09:27;1.70;;;1.00;;
44862;SDS011;30597;49.628;10.850;2023-05-10T07:11:53;1.30;;;1.20;;
44862;SDS011;30597;49.628;10.850;2023-05-10T07:14:18;1.00;;;0.90;;
44862;SDS011;30597;49.628;10.850;2023-05-10T07:16:44;1.00;;;0.90;;
44862;SDS011;30597;49.628;10.850;2023-05-10T07:19:09;1.07;;;0.97;;
44862;SDS011;30597;49.628;10.850;2023-05-10T07:21:35;1.07;;;0.97;;
44862;SDS011;30597;49.628;10.850;2023-05-10T07:24:01;1.47;;;1.20;;
44862;SDS011;30597;49.628;10.850;2023-05-10T07:26:27;1.20;;;1.10;;
44862;SDS011;30597;49.628;10.850;2023-05-10T07:28:52;1.40;;;1.07;;
44862;SDS011;30597;49.628;10.850;2023-05-10T07:31:18;1.00;;;0.90;;
44862;SDS011;30597;49.628;10.850;2023-05-10T07:33:43;1.10;;;0.90;;
44862;SDS011;30597;49.628;10.850;2023-05-10T07:36:09;1.10;;;1.00;;
44862;SDS011;30597;49.628;10.850;2023-05-10T07:38:34;1.00;;;0.90;;
44862;SDS011;30597;49.628;10.850;2023-05-10T07:41:00;0.93;;;0.83;;
44862;SDS011;30597;49.628;10.850;2023-05-10T07:43:25;1.23;;;1.10;;
44862;SDS011;30597;49.628;10.850;2023-05-10T07:45:51;2.73;;;1.00;;
44862;SDS011;30597;49.628;10.850;2023-05-10T07:48:16;1.10;;;1.00;;
44862;SDS011;30597;49.628;10.850;2023-05-10T07:50:42;0.80;;;0.80;;
44862;SDS011;30597;49.628;10.850;2023-05-10T07:53:07;1.40;;;1.20;;
44862;SDS011;30597;49.628;10.850;2023-05-10T07:55:34;1.23;;;1.10;;
44862;SDS011;30597;49.628;10.850;2023-05-10T07:57:59;1.33;;;1.10;;
44862;SDS011;30597;49.628;10.850;2023-05-10T08:00:26;1.10;;;1.00;;
44862;SDS011;30597;49.628;10.850;2023-05-10T08:02:52;1.20;;;1.10;;
44862;SDS011;30597;49.628;10.850;2023-05-10T08:05:17;1.97;;;1.10;;
44862;SDS011;30597;49.628;10.850;2023-05-10T08:07:43;1.37;;;1.10;;
44862;SDS011;30597;49.628;10.850;2023-05-10T08:10:09;1.23;;;1.13;;
44862;SDS011;30597;49.628;10.850;2023-05-10T08:12:36;1.10;;;1.00;;
44862;SDS011;30597;49.628;10.850;2023-05-10T08:15:02;1.23;;;1.00;;
44862;SDS011;30597;49.628;10.850;2023-05-10T08:17:28;1.43;;;1.33;;
44862;SDS011;30597;49.628;10.850;2023-05-10T08:19:54;1.73;;;1.40;;
44862;SDS011;30597;49.628;10.850;2023-05-10T08:22:19;2.40;;;1.17;;
44862;SDS011;30597;49.628;10.850;2023-05-10T08:24:45;2.03;;;1.00;;
44862;SDS011;30597;49.628;10.850;2023-05-10T08:27:11;2.07;;;0.93;;
44862;SDS011;30597;49.628;10.850;2023-05-10T08:29:37;1.10;;;1.00;;
44862;SDS011;30597;49.628;10.850;2023-05-10T08:32:02;0.83;;;0.83;;
44862;SDS011;30597;49.628;10.850;2023-05-10T08:34:28;1.10;;;1.00;;
44862;SDS011;30597;49.628;10.850;2023-05-10T08:36:55;1.40;;;1.30;;
44862;SDS011;30597;49.628;10.850;2023-05-10T08:39:21;2.43;;;0.83;;
44862;SDS011;30597;49.628;10.850;2023-05-10T08:41:48;1.17;;;0.87;;
44862;SDS011;30597;49.628;10.850;2023-05-10T08:44:19;1.10;;;1.00;;
44862;SDS011;30597;49.628;10.850;2023-05-10T08:46:46;1.73;;;0.90;;
44862;SDS011;30597;49.628;10.850;2023-05-10T08:49:17;1.50;;;1.40;;
44862;SDS011;30597;49.628;10.850;2023-05-10T08:51:44;1.10;;;0.90;;
44862;SDS011;30597;49.628;10.850;2023-05-10T08:54:14;1.53;;;1.43;;
44862;SDS011;30597;49.628;10.850;2023-05-10T08:56:40;1.10;;;0.93;;
44862;SDS011;30597;49.628;10.850;2023-05-10T08:59:06;1.07;;;0.97;;
44862;SDS011;30597;49.628;10.850;2023-05-10T09:01:32;1.50;;;1.40;;
44862;SDS011;30597;49.628;10.850;2023-05-10T09:04:00;1.10;;;1.00;;
44862;SDS011;30597;49.628;10.850;2023-05-10T09:06:26;1.30;;;1.10;;
44862;SDS011;30597;49.628;10.850;2023-05-10T09:08:52;1.30;;;1.00;;
44862;SDS011;30597;49.628;10.850;2023-05-10T09:11:17;1.47;;;1.37;;
44862;SDS011;30597;49.628;10.850;2023-05-10T09:13:45;1.40;;;1.13;;
44862;SDS011;30597;49.628;10.850;2023-05-10T09:16:12;1.20;;;1.10;;
44862;SDS011;30597;49.628;10.850;2023-05-10T09:18:38;1.10;;;1.00;;
44862;SDS011;30597;49.628;10.850;2023-05-10T09:21:03;1.23;;;1.10;;
44862;SDS011;30597;49.628;10.850;2023-05-10T09:23:29;1.00;;;0.90;;
44862;SDS011;30597;49.628;10.850;2023-05-10T09:26:06;1.10;;;1.00;;
44862;SDS011;30597;49.628;10.850;2023-05-10T09:28:32;1.83;;;1.43;;
44862;SDS011;30597;49.628;10.850;2023-05-10T09:30:59;1.17;;;1.00;;
44862;SDS011;30597;49.628;10.850;2023-05-10T09:33:24;1.47;;;1.37;;
44862;SDS011;30597;49.628;10.850;2023-05-10T09:35:51;1.23;;;1.10;;
44862;SDS011;30597;49.628;10.850;2023-05-10T09:38:17;1.13;;;1.03;;
44862;SDS011;30597;49.628;10.850;2023-05-10T09:40:42;2.33;;;1.23;;
44862;SDS011;30597;49.628;10.850;2023-05-10T09:43:19;1.23;;;1.10;;
44862;SDS011;30597;49.628;10.850;2023-05-10T09:45:45;1.40;;;0.90;;
44862;SDS011;30597;49.628;10.850;2023-05-10T09:48:14;1.47;;;1.27;;
44862;SDS011;30597;49.628;10.850;2023-05-10T09:50:40;1.37;;;1.27;;
44862;SDS011;30597;49.628;10.850;2023-05-10T09:53:06;1.30;;;1.20;;
44862;SDS011;30597;49.628;10.850;2023-05-10T09:58:01;1.23;;;0.80;;
44862;SDS011;30597;49.628;10.850;2023-05-10T10:00:27;2.77;;;1.43;;
44862;SDS011;30597;49.628;10.850;2023-05-10T10:02:57;1.50;;;1.40;;
44862;SDS011;30597;49.628;10.850;2023-05-10T10:05:34;1.97;;;1.50;;
44862;SDS011;30597;49.628;10.850;2023-05-10T10:08:01;1.57;;;1.40;;
44862;SDS011;30597;49.628;10.850;2023-05-10T10:10:29;1.30;;;1.20;;
44862;SDS011;30597;49.628;10.850;2023-05-10T10:12:56;2.67;;;1.60;;
44862;SDS011;30597;49.628;10.850;2023-05-10T10:15:22;2.67;;;1.37;;
44862;SDS011;30597;49.628;10.850;2023-05-10T10:17:48;1.77;;;1.30;;
44862;SDS011;30597;49.628;10.850;2023-05-10T10:20:15;1.93;;;1.47;;
44862;SDS011;30597;49.628;10.850;2023-05-10T10:22:41;1.90;;;1.50;;
44862;SDS011;30597;49.628;10.850;2023-05-10T10:25:16;2.20;;;1.90;;
44862;SDS011;30597;49.628;10.850;2023-05-10T10:27:45;4.03;;;1.80;;
44862;SDS011;30597;49.628;10.850;2023-05-10T10:35:31;2.03;;;1.60;;
44862;SDS011;30597;49.628;10.850;2023-05-10T10:37:58;3.23;;;1.70;;
44862;SDS011;30597;49.628;10.850;2023-05-10T10:40:24;2.17;;;1.60;;
44862;SDS011;30597;49.628;10.850;2023-05-10T10:42:56;1.97;;;1.70;;
44862;SDS011;30597;49.628;10.850;2023-05-10T10:45:25;2.37;;;1.90;;
44862;SDS011;30597;49.628;10.850;2023-05-10T10:50:46;1.73;;;1.63;;
44862;SDS011;30597;49.628;10.850;2023-05-10T10:53:12;3.40;;;1.33;;
44862;SDS011;30597;49.628;10.850;2023-05-10T10:55:47;1.73;;;1.60;;
44862;SDS011;30597;49.628;10.850;2023-05-10T10:58:29;2.13;;;1.60;;
44862;SDS011;30597;49.628;10.850;2023-05-10T11:01:18;1.83;;;1.73;;
44862;SDS011;30597;49.628;10.850;2023-05-10T11:04:31;2.90;;;1.50;;
44862;SDS011;30597;49.628;10.850;2023-05-10T11:06:33;2.40;;;1.43;;
44862;SDS011;30597;49.628;10.850;2023-05-10T11:09:06;1.70;;;1.60;;
44862;SDS011;30597;49.628;10.850;2023-05-10T11:11:34;2.30;;;1.50;;
44862;SDS011;30597;49.628;10.850;2023-05-10T11:14:06;1.37;;;1.27;;
44862;SDS011;30597;49.628;10.850;2023-05-10T11:16:44;1.70;;;1.60;;
44862;SDS011;30597;49.628;10.850;2023-05-10T11:19:10;2.37;;;1.40;;
44862;SDS011;30597;49.628;10.850;2023-05-10T11:21:47;1.90;;;1.60;;
44862;SDS011;30597;49.628;10.850;2023-05-10T11:24:15;1.90;;;1.57;;
44862;SDS011;30597;49.628;10.850;2023-05-10T11:26:43;2.30;;;1.70;;
44862;SDS011;30597;49.628;10.850;2023-05-10T11:29:08;2.30;;;1.80;;
44862;SDS011;30597;49.628;10.850;2023-05-10T11:31:34;2.40;;;1.73;;
44862;SDS011;30597;49.628;10.850;2023-05-10T11:34:06;2.23;;;1.70;;
44862;SDS011;30597;49.628;10.850;2023-05-10T11:36:32;3.00;;;2.33;;
44862;SDS011;30597;49.628;10.850;2023-05-10T11:39:00;2.73;;;2.10;;
44862;SDS011;30597;49.628;10.850;2023-05-10T11:41:27;2.70;;;2.50;;
44862;SDS011;30597;49.628;10.850;2023-05-10T11:43:54;4.23;;;2.50;;
44862;SDS011;30597;49.628;10.850;2023-05-10T11:46:22;3.20;;;2.27;;
44862;SDS011;30597;49.628;10.850;2023-05-10T11:48:49;2.00;;;1.80;;
44862;SDS011;30597;49.628;10.850;2023-05-10T11:51:19;1.80;;;1.70;;
44862;SDS011;30597;49.628;10.850;2023-05-10T11:53:49;1.63;;;1.50;;
44862;SDS011;30597;49.628;10.850;2023-05-10T11:56:19;2.67;;;2.00;;
44862;SDS011;30597;49.628;10.850;2023-05-10T11:58:53;3.30;;;2.60;;
44862;SDS011;30597;49.628;10.850;2023-05-10T12:01:20;2.53;;;2.30;;
44862;SDS011;30597;49.628;10.850;2023-05-10T12:03:47;2.50;;;2.23;;
44862;SDS011;30597;49.628;10.850;2023-05-10T12:06:13;2.90;;;2.30;;
44862;SDS011;30597;49.628;10.850;2023-05-10T12:08:43;2.83;;;2.63;;
44862;SDS011;30597;49.628;10.850;2023-05-10T12:11:11;3.00;;;2.80;;
44862;SDS011;30597;49.628;10.850;2023-05-10T12:13:41;2.50;;;2.27;;
44862;SDS011;30597;49.628;10.850;2023-05-10T12:16:18;3.00;;;2.70;;
44862;SDS011;30597;49.628;10.850;2023-05-10T12:18:48;2.60;;;2.40;;
44862;SDS011;30597;49.628;10.850;2023-05-10T12:21:15;4.10;;;2.77;;
44862;SDS011;30597;49.628;10.850;2023-05-10T12:23:42;2.50;;;2.27;;
44862;SDS011;30597;49.628;10.850;2023-05-10T12:26:09;3.40;;;2.70;;
44862;SDS011;30597;49.628;10.850;2023-05-10T12:28:36;3.13;;;2.83;;
44862;SDS011;30597;49.628;10.850;2023-05-10T12:31:02;2.73;;;2.23;;
44862;SDS011;30597;49.628;10.850;2023-05-10T12:33:35;2.83;;;2.63;;
44862;SDS011;30597;49.628;10.850;2023-05-10T12:36:06;3.60;;;2.80;;
44862;SDS011;30597;49.628;10.850;2023-05-10T12:38:40;3.40;;;2.67;;
44862;SDS011;30597;49.628;10.850;2023-05-10T12:41:09;2.87;;;2.67;;
44862;SDS011;30597;49.628;10.850;2023-05-10T12:43:36;4.20;;;2.87;;
44862;SDS011;30597;49.628;10.850;2023-05-10T12:46:06;3.10;;;2.80;;
44862;SDS011;30597;49.628;10.850;2023-05-10T12:48:36;2.90;;;2.70;;
44862;SDS011;30597;49.628;10.850;2023-05-10T12:51:03;4.90;;;2.83;;
44862;SDS011;30597;49.628;10.850;2023-05-10T12:53:30;3.07;;;2.77;;
44862;SDS011;30597;49.628;10.850;2023-05-10T12:55:56;3.40;;;3.10;;
44862;SDS011;30597;49.628;10.850;2023-05-10T12:58:22;3.20;;;2.70;;
44862;SDS011;30597;49.628;10.850;2023-05-10T13:00:47;2.90;;;2.70;;
44862;SDS011;30597;49.628;10.850;2023-05-10T13:03:13;2.77;;;2.57;;
44862;SDS011;30597;49.628;10.850;2023-05-10T13:05:40;3.20;;;3.00;;
44862;SDS011;30597;49.628;10.850;2023-05-10T13:08:06;3.63;;;3.33;;
44862;SDS011;30597;49.628;10.850;2023-05-10T13:10:31;4.10;;;3.13;;
44862;SDS011;30597;49.628;10.850;2023-05-10T13:12:57;2.97;;;2.67;;
44862;SDS011;30597;49.628;10.850;2023-05-10T13:15:23;3.27;;;2.97;;
44862;SDS011;30597;49.628;10.850;2023-05-10T13:17:49;2.60;;;2.40;;
44862;SDS011;30597;49.628;10.850;2023-05-10T13:20:15;2.63;;;2.43;;
44862;SDS011;30597;49.628;10.850;2023-05-10T13:22:41;3.20;;;3.00;;
44862;SDS011;30597;49.628;10.850;2023-05-10T13:25:08;2.70;;;2.50;;
44862;SDS011;30597;49.628;10.850;2023-05-10T13:27:33;3.60;;;2.50;;
44862;SDS011;30597;49.628;10.850;2023-05-10T13:29:59;3.17;;;2.93;;
44862;SDS011;30597;49.628;10.850;2023-05-10T13:32:25;2.60;;;2.40;;
44862;SDS011;30597;49.628;10.850;2023-05-10T13:34:51;2.50;;;2.30;;
44862;SDS011;30597;49.628;10.850;2023-05-10T13:37:17;2.87;;;2.67;;
44862;SDS011;30597;49.628;10.850;2023-05-10T13:39:42;3.50;;;2.60;;
44862;SDS011;30597;49.628;10.850;2023-05-10T13:42:08;2.87;;;2.67;;
44862;SDS011;30597;49.628;10.850;2023-05-10T13:44:34;5.37;;;3.20;;
44862;SDS011;30597;49.628;10.850;2023-05-10T13:46:59;4.10;;;3.33;;
44862;SDS011;30597;49.628;10.850;2023-05-10T13:49:25;3.37;;;2.97;;
44862;SDS011;30597;49.628;10.850;2023-05-10T13:51:50;3.73;;;2.77;;
44862;SDS011;30597;49.628;10.850;2023-05-10T13:54:16;3.20;;;2.90;;
44862;SDS011;30597;49.628;10.850;2023-05-10T13:56:44;2.97;;;2.77;;
44862;SDS011;30597;49.628;10.850;2023-05-10T13:59:12;3.30;;;3.00;;
44862;SDS011;30597;49.628;10.850;2023-05-10T14:01:37;2.60;;;2.40;;
44862;SDS011;30597;49.628;10.850;2023-05-10T14:04:03;3.30;;;3.00;;
44862;SDS011;30597;49.628;10.850;2023-05-10T14:06:28;3.40;;;3.10;;
44862;SDS011;30597;49.628;10.850;2023-05-10T14:08:54;3.07;;;2.70;;
44862;SDS011;30597;49.628;10.850;2023-05-10T14:11:20;2.93;;;2.63;;
44862;SDS011;30597;49.628;10.850;2023-05-10T14:13:45;3.40;;;3.00;;
44862;SDS011;30597;49.628;10.850;2023-05-10T14:16:11;3.27;;;2.97;;
44862;SDS011;30597;49.628;10.850;2023-05-10T14:18:37;4.20;;;3.10;;
44862;SDS011;30597;49.628;10.850;2023-05-10T14:21:02;3.63;;;3.30;;
44862;SDS011;30597;49.628;10.850;2023-05-10T14:23:28;3.40;;;3.10;;
44862;SDS011;30597;49.628;10.850;2023-05-10T14:25:54;3.40;;;3.10;;
44862;SDS011;30597;49.628;10.850;2023-05-10T14:28:20;3.23;;;2.93;;
44862;SDS011;30597;49.628;10.850;2023-05-10T14:30:46;2.80;;;2.60;;
44862;SDS011;30597;49.628;10.850;2023-05-10T14:33:12;3.20;;;2.83;;
44862;SDS011;30597;49.628;10.850;2023-05-10T14:35:38;3.00;;;2.70;;
44862;SDS011;30597;49.628;10.850;2023-05-10T14:38:04;3.30;;;2.93;;
44862;SDS011;30597;49.628;10.850;2023-05-10T14:40:29;7.50;;;2.97;;
44862;SDS011;30597;49.628;10.850;2023-05-10T14:42:55;2.90;;;2.60;;
44862;SDS011;30597;49.628;10.850;2023-05-10T14:45:21;4.10;;;3.70;;
44862;SDS011;30597;49.628;10.850;2023-05-10T14:47:47;3.10;;;2.80;;
44862;SDS011;30597;49.628;10.850;2023-05-10T14:50:13;3.50;;;2.80;;
44862;SDS011;30597;49.628;10.850;2023-05-10T14:52:39;3.23;;;2.93;;
44862;SDS011;30597;49.628;10.850;2023-05-10T14:55:05;2.90;;;2.67;;
44862;SDS011;30597;49.628;10.850;2023-05-10T14:57:31;3.70;;;3.10;;